หน้าหลัก
METAR-TAF:

METAR-TAF

ท่าอากาศยาน :

ท่าอากาศยานดอนเมือง

กรุงเทพมหานคร, ไทย

ละติจูด: 13-54-45N, ลองจิจูด: 100-36-24E, ความสูง: 4 ม.

การสังเกตสภาพอากาศปัจจุบัน

รายงานได้ทำขึ้นเมื่อ 33 นาทีที่แล้ว ณ เวลา 07:30 UTC
ลม 7 นอตจากตะวันออก/ตะวันออกเฉียงใต้, แปรผันระหว่างเหนือ และใต้/ตะวันออกเฉียงใต้
อุณหภูมิ 35°C
ความชื้น 47%
ความกดอากาศ 1010 hPa
ทัศนวิสัย 10 กม. หรือมากกว่า
มีเมฆน้อยที่ความสูง 2000 ฟุต

METAR: VTBD 250730Z 11007KT 350V150 9999 FEW020 35/22 Q1010 NOSIG

เวลา: 15:03 (08:03 UTC)

การพยากรณ์

รายงานได้ทำขึ้นเมื่อ 3 ชั่วโมงและ 3 นาทีที่แล้ว ณ เวลา 05:00 UTC
การพยากรณ์มีผลตั้งแต่วันที่ 25 ณ เวลา 06 UTC จนถึงวันที่ 26 ณ เวลา 12 UTC
ลม 5 นอตจากใต้
ทัศนวิสัย: 9000 ม.
มีเมฆน้อยที่ความสูง 2000 ฟุต
มีเมฆกระจายเป็นบางส่วนที่ความสูง 8000 ฟุต
ชั่วคราว
ตั้งแต่วันที่ 25 ณ เวลา 07 UTC จนถึงวันที่ 25 ณ เวลา 10 UTC
ลม 15 นอตจากทิศทางซึ่งแปรผันได้
ทัศนวิสัย: 5000 ม.
มีเมฆน้อยที่ความสูง 1800 ฟุต, คิวมูโลนิมบัส.
มีเมฆกระจายเป็นบางส่วนที่ความสูง 3000 ฟุต
พายุฝนฟ้าคะนอง, ฝน,

TAF: VTBD 250500Z 2506/2612 19005KT 9000 FEW020 SCT080 TEMPO 2507/2510 VRB15KT 5000 TSRA FEW018CB SCT030

สังเกตการณ์สภาพอากาศและพยากรณ์อากาศของสนามบินมากกว่า 4000 แห่ง (รายงาน METAR และ TAF).

สถานีที่ดูได้จะแสดงไว้ด้วยจุดสีเหลืองและสีแดงบนแผนที่.

เลื่อนเมาส์ไปเหนือจุดเพื่อดูชื่อสถานี.

แล้วคลิกเพื่อดูสังเกตการณ์และการพยากรณ์สภาพอากาศ.

ในการเปลี่ยนแผนที่: คลิกที่ปุ่มสีเขียวที่มีกากบาทสีดำเพื่อซูมเข้า; ที่ปุ่มสีเขียวที่มีขีดเพื่อซูมออก; หรือที่ลูกศรสีเขียวเพื่อไปยังแผนที่ที่อยู่ติดกัน.


METAR-TAF: